createdAt,value
2023-04-22T00:00:18.046Z,10.10
2023-04-22T00:02:45.674Z,10.20
2023-04-22T00:05:15.656Z,10.20
2023-04-22T00:07:43.767Z,10.20
2023-04-22T00:10:10.268Z,10.20
2023-04-22T00:12:36.777Z,10.20
2023-04-22T00:15:03.256Z,10.10
2023-04-22T00:17:29.827Z,10.10
2023-04-22T00:19:56.974Z,10.10
2023-04-22T00:22:23.477Z,10.10
2023-04-22T00:24:49.938Z,10.10
2023-04-22T00:27:16.456Z,10.10
2023-04-22T00:29:42.984Z,10.10
2023-04-22T00:32:09.457Z,10.10
2023-04-22T00:34:36.110Z,10.20
2023-04-22T00:37:02.608Z,10.30
2023-04-22T00:39:29.175Z,10.40
2023-04-22T00:41:55.817Z,10.40
2023-04-22T00:44:22.298Z,10.40
2023-04-22T00:46:48.866Z,10.40
2023-04-22T00:49:15.557Z,10.40
2023-04-22T00:51:42.089Z,10.40
2023-04-22T00:54:08.590Z,10.50
2023-04-22T00:56:35.952Z,10.50
2023-04-22T00:59:02.462Z,10.50
2023-04-22T01:01:28.986Z,10.40
2023-04-22T01:03:56.475Z,10.40
2023-04-22T01:06:23.109Z,10.40
2023-04-22T01:08:49.576Z,10.40
2023-04-22T01:11:16.064Z,10.50
2023-04-22T01:13:42.651Z,10.60
2023-04-22T01:16:09.227Z,10.70
2023-04-22T01:18:36.319Z,10.80
2023-04-22T01:21:03.160Z,10.80
2023-04-22T01:23:29.680Z,10.80
2023-04-22T01:25:56.153Z,10.80
2023-04-22T01:28:22.702Z,10.90
2023-04-22T01:30:49.183Z,10.90
2023-04-22T01:33:15.701Z,10.90
2023-04-22T01:35:42.194Z,10.90
2023-04-22T01:38:08.683Z,10.90
2023-04-22T01:40:35.133Z,10.90
2023-04-22T01:43:01.700Z,10.90
2023-04-22T01:45:28.213Z,10.90
2023-04-22T01:47:54.749Z,11.00
2023-04-22T01:50:21.333Z,11.00
2023-04-22T01:52:47.873Z,11.00
2023-04-22T01:55:14.419Z,11.00
2023-04-22T01:57:41.265Z,11.00
2023-04-22T02:00:08.340Z,11.00
2023-04-22T02:02:35.069Z,11.00
2023-04-22T02:05:01.644Z,11.00
2023-04-22T02:07:28.192Z,11.00
2023-04-22T02:09:54.720Z,11.00
2023-04-22T02:12:21.287Z,11.00
2023-04-22T02:14:47.823Z,11.00
2023-04-22T02:17:14.338Z,11.00
2023-04-22T02:19:41.214Z,11.00
2023-04-22T02:22:08.008Z,10.90
2023-04-22T02:24:34.483Z,10.80
2023-04-22T02:27:01.287Z,10.80
2023-04-22T02:29:28.032Z,10.80
2023-04-22T02:31:54.692Z,10.90
2023-04-22T02:34:21.250Z,10.80
2023-04-22T02:36:47.742Z,10.80
2023-04-22T02:39:14.230Z,10.80
2023-04-22T02:41:40.720Z,10.80
2023-04-22T02:44:07.242Z,10.80
2023-04-22T02:46:33.925Z,10.80
2023-04-22T02:49:00.860Z,10.80
2023-04-22T02:51:27.325Z,10.80
2023-04-22T02:53:53.795Z,10.80
2023-04-22T02:56:20.436Z,10.80
2023-04-22T02:58:47.117Z,10.80
2023-04-22T03:01:13.635Z,10.80
2023-04-22T03:03:40.282Z,10.80
2023-04-22T03:06:06.995Z,10.80
2023-04-22T03:08:33.544Z,10.80
2023-04-22T03:11:00.029Z,10.80
2023-04-22T03:13:26.528Z,10.80
2023-04-22T03:15:53.098Z,10.80
2023-04-22T03:18:19.647Z,10.80
2023-04-22T03:20:46.285Z,10.80
2023-04-22T03:23:12.780Z,10.90
2023-04-22T03:25:39.258Z,10.90
2023-04-22T03:28:05.805Z,10.90
2023-04-22T03:30:32.344Z,11.00
2023-04-22T03:32:58.898Z,11.00
2023-04-22T03:35:25.606Z,11.00
2023-04-22T03:37:52.166Z,11.00
2023-04-22T03:40:18.639Z,11.10
2023-04-22T03:42:45.156Z,11.10
2023-04-22T03:45:11.658Z,11.20
2023-04-22T03:47:38.218Z,11.20
2023-04-22T03:50:04.813Z,11.30
2023-04-22T03:52:31.312Z,11.30
2023-04-22T03:54:57.774Z,11.30
2023-04-22T03:57:24.302Z,11.30
2023-04-22T03:59:50.909Z,11.30
2023-04-22T04:02:17.733Z,11.30
2023-04-22T04:04:44.741Z,11.30
2023-04-22T04:07:11.466Z,11.30
2023-04-22T04:09:38.416Z,11.30
2023-04-22T04:12:05.261Z,11.30
2023-04-22T04:14:31.750Z,11.30
2023-04-22T04:16:58.504Z,11.30
2023-04-22T04:19:25.057Z,11.30
2023-04-22T04:21:51.576Z,11.30
2023-04-22T04:24:18.066Z,11.30
2023-04-22T04:26:44.569Z,11.30
2023-04-22T04:29:11.140Z,11.30
2023-04-22T04:31:37.705Z,11.30
2023-04-22T04:34:04.345Z,11.30
2023-04-22T04:36:32.700Z,11.30
2023-04-22T04:38:59.189Z,11.30
2023-04-22T04:41:28.051Z,11.30
2023-04-22T04:43:54.559Z,11.30
2023-04-22T04:46:21.196Z,11.30
2023-04-22T04:48:48.686Z,11.30
2023-04-22T04:51:15.244Z,11.30
2023-04-22T04:53:41.776Z,11.30
2023-04-22T04:56:08.237Z,11.40
2023-04-22T04:58:34.822Z,11.30
2023-04-22T05:01:01.334Z,11.40
2023-04-22T05:03:28.033Z,11.40
2023-04-22T05:05:54.740Z,11.30
2023-04-22T05:08:21.351Z,11.30
2023-04-22T05:10:47.892Z,11.30
2023-04-22T05:13:14.460Z,11.30
2023-04-22T05:15:40.923Z,11.30
2023-04-22T05:18:07.646Z,11.30
2023-04-22T05:20:36.145Z,11.40
2023-04-22T05:23:02.929Z,11.40
2023-04-22T05:25:29.429Z,11.40
2023-04-22T05:27:55.944Z,11.40
2023-04-22T05:30:22.471Z,11.40
2023-04-22T05:32:49.036Z,11.40
2023-04-22T05:35:15.610Z,11.40
2023-04-22T05:37:42.162Z,11.50
2023-04-22T05:40:08.682Z,11.50
2023-04-22T05:42:35.197Z,11.50
2023-04-22T05:45:01.687Z,11.50
2023-04-22T05:47:28.284Z,11.50
2023-04-22T05:49:54.824Z,11.50
2023-04-22T05:52:21.403Z,11.60
2023-04-22T05:54:47.910Z,11.60
2023-04-22T05:57:14.513Z,11.60
2023-04-22T05:59:41.248Z,11.60
2023-04-22T06:02:08.161Z,11.60
2023-04-22T06:04:37.343Z,11.60
2023-04-22T06:07:04.517Z,11.70
2023-04-22T06:09:31.010Z,11.70
2023-04-22T06:11:58.102Z,11.80
2023-04-22T06:14:24.691Z,11.80
2023-04-22T06:16:52.580Z,11.80
2023-04-22T06:19:19.242Z,11.90
2023-04-22T06:21:46.026Z,11.90
2023-04-22T06:24:12.573Z,12.00
2023-04-22T06:26:39.157Z,12.00
2023-04-22T06:29:05.957Z,12.10
2023-04-22T06:31:32.518Z,12.20
2023-04-22T06:33:59.525Z,12.20
2023-04-22T06:36:27.369Z,12.20
2023-04-22T06:38:54.984Z,12.30
2023-04-22T06:41:21.597Z,12.30
2023-04-22T06:43:49.691Z,12.40
2023-04-22T06:46:16.250Z,12.50
2023-04-22T06:48:42.812Z,12.50
2023-04-22T06:51:09.350Z,12.60
2023-04-22T06:53:35.879Z,12.70
2023-04-22T06:56:02.362Z,12.80
2023-04-22T06:58:28.849Z,12.80
2023-04-22T07:00:55.342Z,12.90
2023-04-22T07:03:21.990Z,12.90
2023-04-22T07:05:48.672Z,13.00
2023-04-22T07:08:15.277Z,13.00
2023-04-22T07:10:41.750Z,13.10
2023-04-22T07:13:08.324Z,13.10
2023-04-22T07:15:34.938Z,13.10
2023-04-22T07:18:01.477Z,13.20
2023-04-22T07:20:27.989Z,13.20
2023-04-22T07:22:54.618Z,13.30
2023-04-22T07:25:21.130Z,13.40
2023-04-22T07:27:47.710Z,13.50
2023-04-22T07:30:14.389Z,13.50
2023-04-22T07:32:40.978Z,13.60
2023-04-22T07:35:07.494Z,13.60
2023-04-22T07:37:34.045Z,13.60
2023-04-22T07:40:00.601Z,13.70
2023-04-22T07:42:27.220Z,13.80
2023-04-22T07:44:53.777Z,13.90
2023-04-22T07:47:20.430Z,14.00
2023-04-22T07:49:46.947Z,14.20
2023-04-22T07:52:13.564Z,14.40
2023-04-22T07:54:40.248Z,14.50
2023-04-22T07:57:06.773Z,14.60
2023-04-22T07:59:33.316Z,14.80
2023-04-22T08:01:59.925Z,14.90
2023-04-22T08:04:26.909Z,15.10
2023-04-22T08:06:54.765Z,15.20
2023-04-22T08:09:21.342Z,15.20
2023-04-22T08:11:47.876Z,15.20
2023-04-22T08:14:14.347Z,15.10
2023-04-22T08:16:41.140Z,15.20
2023-04-22T08:19:07.647Z,15.30
2023-04-22T08:21:37.160Z,15.30
2023-04-22T08:24:03.739Z,15.40
2023-04-22T08:26:30.513Z,15.60
2023-04-22T08:28:57.059Z,15.60
2023-04-22T08:31:23.642Z,15.70
2023-04-22T08:33:51.005Z,15.70
2023-04-22T08:36:17.583Z,15.80
2023-04-22T08:38:44.145Z,15.80
2023-04-22T08:41:10.732Z,15.90
2023-04-22T08:43:37.221Z,16.10
2023-04-22T08:46:03.700Z,16.20
2023-04-22T08:48:30.261Z,16.30
2023-04-22T08:50:56.765Z,16.40
2023-04-22T08:53:24.901Z,16.60
2023-04-22T08:55:51.588Z,16.60
2023-04-22T08:58:18.199Z,16.80
2023-04-22T09:00:44.809Z,16.80
2023-04-22T09:03:11.520Z,16.80
2023-04-22T09:05:38.077Z,16.90
2023-04-22T09:08:04.596Z,17.00
2023-04-22T09:10:33.548Z,17.00
2023-04-22T09:13:00.719Z,17.20
2023-04-22T09:15:27.683Z,17.20
2023-04-22T09:17:54.377Z,17.20
2023-04-22T09:20:20.907Z,17.30
2023-04-22T09:22:47.428Z,17.40
2023-04-22T09:25:13.902Z,17.40
2023-04-22T09:27:40.440Z,17.50
2023-04-22T09:30:07.050Z,17.50
2023-04-22T09:32:33.590Z,17.50
2023-04-22T09:35:00.110Z,17.50
2023-04-22T09:37:33.317Z,17.40
2023-04-22T09:40:09.556Z,17.40
2023-04-22T09:42:36.059Z,17.50
2023-04-22T09:45:02.672Z,17.50
2023-04-22T09:47:29.423Z,17.40
2023-04-22T09:49:55.914Z,17.50
2023-04-22T09:52:24.621Z,17.60
2023-04-22T09:54:54.333Z,17.50
2023-04-22T09:57:21.217Z,17.50
2023-04-22T09:59:47.703Z,17.50
2023-04-22T10:02:14.251Z,17.70
2023-04-22T10:04:40.985Z,17.80
2023-04-22T10:07:07.522Z,17.90
2023-04-22T10:09:34.063Z,18.10
2023-04-22T10:12:01.251Z,18.20
2023-04-22T10:14:27.749Z,18.20
2023-04-22T10:16:54.365Z,18.30
2023-04-22T10:19:20.975Z,18.40
2023-04-22T10:21:47.522Z,18.60
2023-04-22T10:24:14.049Z,18.70
2023-04-22T10:26:41.271Z,19.00
2023-04-22T10:29:09.319Z,19.00
2023-04-22T10:31:36.046Z,19.10
2023-04-22T10:34:03.409Z,19.00
2023-04-22T10:36:29.969Z,19.10
2023-04-22T10:38:56.695Z,19.10
2023-04-22T10:41:23.186Z,19.00
2023-04-22T10:43:51.042Z,19.20
2023-04-22T10:46:17.628Z,19.10
2023-04-22T10:48:44.168Z,19.10
2023-04-22T10:51:10.732Z,19.00
2023-04-22T10:53:37.291Z,19.00
2023-04-22T10:56:03.998Z,19.00
2023-04-22T10:58:30.550Z,19.00
2023-04-22T11:01:02.976Z,18.90
2023-04-22T11:03:30.364Z,18.80
2023-04-22T11:05:57.120Z,18.70
2023-04-22T11:08:24.166Z,18.60
2023-04-22T11:10:50.802Z,18.60
2023-04-22T11:13:17.440Z,18.60
2023-04-22T11:15:44.000Z,18.50
2023-04-22T11:18:11.132Z,18.50
2023-04-22T11:20:38.060Z,18.50
2023-04-22T11:23:04.711Z,18.50
2023-04-22T11:25:31.291Z,18.60
2023-04-22T11:27:57.844Z,18.60
2023-04-22T11:30:24.394Z,18.60
2023-04-22T11:32:51.043Z,18.60
2023-04-22T11:35:17.673Z,18.70
2023-04-22T11:37:44.243Z,18.80
2023-04-22T11:40:28.087Z,19.10
2023-04-22T11:42:56.530Z,19.40
2023-04-22T11:45:23.089Z,19.60
2023-04-22T11:47:50.735Z,19.70
2023-04-22T11:50:17.231Z,19.80
2023-04-22T11:52:46.882Z,20.00
2023-04-22T11:55:13.459Z,20.20
2023-04-22T11:57:40.800Z,20.30
2023-04-22T12:00:07.386Z,20.50
2023-04-22T12:02:33.995Z,20.50
2023-04-22T12:05:00.758Z,20.40
2023-04-22T12:07:27.365Z,20.40
2023-04-22T12:09:53.879Z,20.40
2023-04-22T12:12:20.569Z,20.60
2023-04-22T12:14:47.142Z,20.80
2023-04-22T12:17:14.809Z,20.80
2023-04-22T12:19:41.969Z,21.00
2023-04-22T12:22:08.576Z,21.00
2023-04-22T12:24:35.503Z,20.80
2023-04-22T12:27:03.377Z,20.80
2023-04-22T12:29:29.883Z,20.90
2023-04-22T12:31:56.399Z,20.90
2023-04-22T12:34:22.918Z,20.90
2023-04-22T12:36:49.494Z,21.00
2023-04-22T12:39:16.159Z,20.80
2023-04-22T12:41:42.691Z,20.60
2023-04-22T12:44:09.258Z,20.50
2023-04-22T12:46:36.199Z,20.70
2023-04-22T12:49:02.716Z,20.90
2023-04-22T12:51:29.203Z,21.00
2023-04-22T12:53:55.772Z,21.10
2023-04-22T12:56:22.293Z,21.10
2023-04-22T12:58:48.849Z,20.90
2023-04-22T13:01:15.584Z,20.70
2023-04-22T13:03:42.196Z,20.60
2023-04-22T13:06:08.754Z,20.50
2023-04-22T13:08:35.296Z,20.50
2023-04-22T13:11:01.988Z,20.50
2023-04-22T13:13:28.516Z,20.40
2023-04-22T13:15:55.090Z,20.40
2023-04-22T13:18:21.881Z,20.30
2023-04-22T13:20:48.494Z,20.30
2023-04-22T13:23:15.401Z,20.00
2023-04-22T13:25:41.933Z,19.90
2023-04-22T13:28:08.428Z,19.80
2023-04-22T13:30:34.968Z,19.80
2023-04-22T13:33:01.525Z,19.80
2023-04-22T13:35:28.067Z,19.90
2023-04-22T13:37:54.602Z,19.90
2023-04-22T13:40:21.452Z,19.90
2023-04-22T13:42:48.004Z,19.90
2023-04-22T13:45:14.521Z,19.90
2023-04-22T13:47:41.057Z,20.00
2023-04-22T13:50:07.884Z,19.90
2023-04-22T13:52:34.981Z,19.90
2023-04-22T13:55:01.524Z,19.80
2023-04-22T13:57:28.033Z,19.80
2023-04-22T13:59:54.602Z,19.80
2023-04-22T14:02:21.204Z,19.80
2023-04-22T14:04:47.779Z,19.80
2023-04-22T14:07:14.308Z,19.80
2023-04-22T14:09:41.097Z,19.70
2023-04-22T14:12:07.857Z,19.70
2023-04-22T14:14:34.473Z,19.60
2023-04-22T14:17:01.239Z,19.50
2023-04-22T14:19:30.134Z,19.40
2023-04-22T14:21:56.704Z,19.40
2023-04-22T14:24:24.311Z,19.50
2023-04-22T14:26:51.981Z,19.40
2023-04-22T14:29:18.493Z,19.40
2023-04-22T14:31:45.240Z,19.30
2023-04-22T14:34:11.903Z,19.30
2023-04-22T14:36:38.421Z,19.20
2023-04-22T14:39:05.077Z,19.10
2023-04-22T14:41:31.582Z,19.10
2023-04-22T14:43:58.116Z,19.00
2023-04-22T14:46:24.650Z,19.00
2023-04-22T14:48:51.183Z,18.90
2023-04-22T14:51:17.703Z,18.90
2023-04-22T14:53:44.254Z,18.80
2023-04-22T14:56:11.943Z,18.70
2023-04-22T14:58:38.582Z,18.60
2023-04-22T15:01:07.398Z,18.50
2023-04-22T15:03:35.538Z,18.40
2023-04-22T15:06:02.603Z,18.30
2023-04-22T15:08:29.166Z,18.20
2023-04-22T15:10:55.718Z,18.10
2023-04-22T15:13:22.236Z,17.90
2023-04-22T15:15:48.848Z,17.90
2023-04-22T15:18:15.337Z,17.80
2023-04-22T15:20:41.804Z,17.80
2023-04-22T15:23:08.304Z,17.70
2023-04-22T15:25:35.639Z,17.70
2023-04-22T15:28:02.274Z,17.70
2023-04-22T15:30:28.887Z,17.60
2023-04-22T15:32:55.593Z,17.60
2023-04-22T15:35:22.227Z,17.60
2023-04-22T15:37:48.731Z,17.60
2023-04-22T15:40:15.356Z,17.70
2023-04-22T15:42:41.839Z,17.60
2023-04-22T15:45:08.391Z,17.60
2023-04-22T15:47:34.989Z,17.50
2023-04-22T15:50:08.934Z,17.30
2023-04-22T15:52:36.011Z,17.20
2023-04-22T15:55:02.581Z,17.10
2023-04-22T15:57:33.936Z,17.00
2023-04-22T16:00:10.212Z,16.90
2023-04-22T16:02:38.173Z,16.80
2023-04-22T16:05:04.782Z,16.70
2023-04-22T16:07:31.313Z,16.60
2023-04-22T16:09:57.829Z,16.50
2023-04-22T16:12:24.437Z,16.40
2023-04-22T16:14:51.043Z,16.40
2023-04-22T16:17:17.613Z,16.30
2023-04-22T16:19:44.217Z,16.30
2023-04-22T16:22:10.705Z,16.30
2023-04-22T16:24:37.487Z,16.30
2023-04-22T16:27:04.004Z,16.20
2023-04-22T16:29:30.712Z,16.20
2023-04-22T16:31:57.214Z,16.20
2023-04-22T16:34:23.775Z,16.10
2023-04-22T16:36:50.395Z,16.10
2023-04-22T16:39:18.964Z,16.00
2023-04-22T16:41:45.684Z,16.00
2023-04-22T16:44:12.189Z,15.90
2023-04-22T16:46:38.808Z,15.90
2023-04-22T16:49:07.813Z,15.90
2023-04-22T16:51:36.774Z,15.90
2023-04-22T16:54:03.302Z,15.90
2023-04-22T16:56:29.949Z,15.90
2023-04-22T16:58:56.487Z,15.90
2023-04-22T17:01:24.037Z,15.80
2023-04-22T17:03:50.870Z,15.80
2023-04-22T17:06:17.544Z,15.90
2023-04-22T17:08:44.040Z,15.80
2023-04-22T17:11:10.615Z,15.80
2023-04-22T17:13:37.124Z,15.80
2023-04-22T17:16:03.718Z,15.80
2023-04-22T17:18:30.353Z,15.80
2023-04-22T17:20:56.911Z,15.80
2023-04-22T17:23:23.576Z,15.80
2023-04-22T17:25:50.231Z,15.80
2023-04-22T17:28:16.744Z,15.80
2023-04-22T17:30:43.272Z,15.80
2023-04-22T17:33:09.798Z,15.70
2023-04-22T17:35:36.331Z,15.70
2023-04-22T17:38:02.831Z,15.70
2023-04-22T17:40:29.361Z,15.60
2023-04-22T17:42:55.833Z,15.60
2023-04-22T17:45:22.364Z,15.50
2023-04-22T17:47:48.947Z,15.60
2023-04-22T17:50:15.596Z,15.50
2023-04-22T17:52:42.123Z,15.50
2023-04-22T17:55:08.608Z,15.50
2023-04-22T17:57:35.245Z,15.60
2023-04-22T18:00:01.748Z,15.60
2023-04-22T18:02:28.500Z,15.50
2023-04-22T18:04:55.129Z,15.50
2023-04-22T18:07:21.778Z,15.50
2023-04-22T18:09:49.503Z,15.50
2023-04-22T18:12:16.035Z,15.40
2023-04-22T18:14:42.561Z,15.40
2023-04-22T18:17:09.099Z,15.40
2023-04-22T18:19:35.589Z,15.40
2023-04-22T18:22:02.126Z,15.30
2023-04-22T18:24:28.668Z,15.20
2023-04-22T18:26:55.164Z,15.10
2023-04-22T18:29:21.900Z,15.10
2023-04-22T18:31:48.490Z,15.10
2023-04-22T18:34:15.798Z,15.00
2023-04-22T18:36:42.432Z,15.00
2023-04-22T18:39:09.506Z,14.90
2023-04-22T18:41:37.951Z,14.90
2023-04-22T18:44:04.690Z,14.80
2023-04-22T18:46:31.463Z,14.80
2023-04-22T18:48:57.934Z,14.80
2023-04-22T18:51:28.460Z,14.70
2023-04-22T18:53:55.505Z,14.70
2023-04-22T18:56:22.123Z,14.60
2023-04-22T18:58:50.111Z,14.50
2023-04-22T19:01:16.833Z,14.30
2023-04-22T19:03:43.393Z,14.20
2023-04-22T19:06:10.041Z,14.10
2023-04-22T19:08:36.603Z,13.90
2023-04-22T19:11:03.211Z,13.80
2023-04-22T19:13:30.381Z,13.60
2023-04-22T19:15:57.195Z,13.50
2023-04-22T19:18:23.779Z,13.50
2023-04-22T19:20:50.385Z,13.40
2023-04-22T19:23:16.938Z,13.30
2023-04-22T19:25:43.622Z,13.30
2023-04-22T19:28:10.106Z,13.20
2023-04-22T19:30:36.631Z,13.10
2023-04-22T19:33:03.144Z,13.10
2023-04-22T19:35:29.729Z,13.10
2023-04-22T19:37:56.223Z,13.10
2023-04-22T19:40:22.710Z,13.00
2023-04-22T19:42:49.259Z,13.00
2023-04-22T19:45:15.744Z,13.00
2023-04-22T19:47:42.376Z,12.90
2023-04-22T19:50:09.313Z,12.90
2023-04-22T19:52:35.951Z,12.90
2023-04-22T19:55:06.510Z,12.90
2023-04-22T19:57:33.017Z,12.90
2023-04-22T19:59:59.485Z,12.90
2023-04-22T20:02:26.641Z,12.90
2023-04-22T20:04:53.365Z,12.80
2023-04-22T20:07:19.856Z,12.80
2023-04-22T20:09:46.518Z,12.80
2023-04-22T20:12:13.011Z,12.80
2023-04-22T20:14:39.514Z,12.80
2023-04-22T20:17:06.017Z,12.80
2023-04-22T20:19:32.480Z,12.80
2023-04-22T20:21:59.238Z,12.80
2023-04-22T20:24:25.741Z,12.80
2023-04-22T20:26:53.390Z,12.70
2023-04-22T20:29:19.956Z,12.70
2023-04-22T20:31:46.695Z,12.70
2023-04-22T20:34:13.232Z,12.70
2023-04-22T20:36:39.778Z,12.60
2023-04-22T20:39:06.404Z,12.60
2023-04-22T20:41:33.872Z,12.60
2023-04-22T20:44:00.675Z,12.60
2023-04-22T20:46:28.126Z,12.50
2023-04-22T20:48:54.848Z,12.50
2023-04-22T20:51:21.372Z,12.50
2023-04-22T20:53:47.898Z,12.50
2023-04-22T20:56:14.411Z,12.50
2023-04-22T20:58:40.929Z,12.50
2023-04-22T21:01:07.563Z,12.50
2023-04-22T21:03:34.288Z,12.50
2023-04-22T21:06:00.972Z,12.50
2023-04-22T21:08:27.506Z,12.50
2023-04-22T21:10:54.023Z,12.50
2023-04-22T21:13:20.558Z,12.50
2023-04-22T21:15:47.125Z,12.50
2023-04-22T21:18:13.619Z,12.50
2023-04-22T21:20:40.249Z,12.50
2023-04-22T21:23:07.766Z,12.50
2023-04-22T21:25:34.268Z,12.50
2023-04-22T21:28:01.135Z,12.50
2023-04-22T21:30:27.616Z,12.60
2023-04-22T21:32:54.114Z,12.60
2023-04-22T21:35:23.659Z,12.60
2023-04-22T21:37:50.603Z,12.60
2023-04-22T21:40:17.374Z,12.60
2023-04-22T21:42:43.904Z,12.60
2023-04-22T21:45:10.500Z,12.60
2023-04-22T21:47:37.106Z,12.70
2023-04-22T21:50:03.692Z,12.60
2023-04-22T21:52:30.317Z,12.50
2023-04-22T21:54:56.804Z,12.40
2023-04-22T21:57:23.308Z,12.30
2023-04-22T21:59:49.834Z,12.20
2023-04-22T22:02:16.433Z,12.10
2023-04-22T22:04:43.324Z,12.00
2023-04-22T22:07:12.145Z,11.90
2023-04-22T22:09:38.635Z,11.80
2023-04-22T22:12:06.469Z,11.80
2023-04-22T22:14:32.935Z,11.80
2023-04-22T22:16:59.589Z,11.70
2023-04-22T22:19:27.685Z,11.70
2023-04-22T22:21:54.189Z,11.80
2023-04-22T22:24:20.736Z,11.70
2023-04-22T22:26:47.266Z,11.70
2023-04-22T22:29:15.453Z,11.80
2023-04-22T22:31:42.230Z,11.80
2023-04-22T22:34:08.737Z,11.80
2023-04-22T22:36:36.115Z,11.80
2023-04-22T22:39:03.394Z,11.80
2023-04-22T22:41:29.944Z,11.80
2023-04-22T22:43:56.412Z,11.90
2023-04-22T22:46:22.986Z,11.80
2023-04-22T22:48:49.802Z,11.80
2023-04-22T22:51:18.514Z,11.70
2023-04-22T22:53:45.317Z,11.70
2023-04-22T22:56:14.413Z,11.70
2023-04-22T22:58:40.924Z,11.70
2023-04-22T23:01:07.438Z,11.70
2023-04-22T23:03:34.198Z,11.60
2023-04-22T23:06:01.192Z,11.60
2023-04-22T23:08:27.679Z,11.60
2023-04-22T23:10:54.189Z,11.60
2023-04-22T23:13:20.913Z,11.50
2023-04-22T23:15:47.421Z,11.40
2023-04-22T23:18:13.985Z,11.40
2023-04-22T23:20:40.462Z,11.40
2023-04-22T23:23:06.971Z,11.30
2023-04-22T23:25:33.458Z,11.30
2023-04-22T23:28:00.572Z,11.30
2023-04-22T23:30:27.081Z,11.30
2023-04-22T23:32:53.576Z,11.30
2023-04-22T23:35:20.154Z,11.40
2023-04-22T23:37:46.919Z,11.40
2023-04-22T23:40:13.489Z,11.40
2023-04-22T23:42:40.263Z,11.40
2023-04-22T23:45:07.168Z,11.40
2023-04-22T23:47:33.755Z,11.40
2023-04-22T23:50:00.408Z,11.40
2023-04-22T23:52:26.944Z,11.40
2023-04-22T23:54:54.952Z,11.30
2023-04-22T23:57:21.650Z,11.30
2023-04-22T23:59:48.153Z,11.30
